createdAt,value
2023-03-25T00:00:15.756Z,1.25
2023-03-25T00:02:46.304Z,0.98
2023-03-25T00:05:15.737Z,0.88
2023-03-25T00:07:43.702Z,0.88
2023-03-25T00:10:12.401Z,1.13
2023-03-25T00:12:40.824Z,1.23
2023-03-25T00:15:10.883Z,0.88
2023-03-25T00:17:38.843Z,1.02
2023-03-25T00:20:10.310Z,0.82
2023-03-25T00:22:41.507Z,0.93
2023-03-25T00:25:10.333Z,1.10
2023-03-25T00:27:38.288Z,0.75
2023-03-25T00:30:06.631Z,0.90
2023-03-25T00:32:34.484Z,0.98
2023-03-25T00:35:02.452Z,0.90
2023-03-25T00:37:31.820Z,1.10
2023-03-25T00:39:59.702Z,0.95
2023-03-25T00:42:27.660Z,0.90
2023-03-25T00:44:55.812Z,0.80
2023-03-25T00:47:24.713Z,0.80
2023-03-25T00:49:52.737Z,1.27
2023-03-25T00:52:23.082Z,1.05
2023-03-25T00:54:53.857Z,1.77
2023-03-25T00:57:22.201Z,0.90
2023-03-25T00:59:51.527Z,1.27
2023-03-25T01:02:21.685Z,1.20
2023-03-25T01:04:50.839Z,1.17
2023-03-25T01:07:18.616Z,0.93
2023-03-25T01:09:47.759Z,2.55
2023-03-25T01:12:17.052Z,0.82
2023-03-25T01:14:45.014Z,0.63
2023-03-25T01:17:12.830Z,0.68
2023-03-25T01:19:40.978Z,0.68
2023-03-25T01:22:09.051Z,0.60
2023-03-25T01:24:36.840Z,0.50
2023-03-25T01:27:04.925Z,0.90
2023-03-25T01:29:34.005Z,0.68
2023-03-25T01:32:01.778Z,0.50
2023-03-25T01:34:29.846Z,0.77
2023-03-25T01:36:58.249Z,0.80
2023-03-25T01:39:26.335Z,1.08
2023-03-25T01:41:55.208Z,0.90
2023-03-25T01:44:42.397Z,1.30
2023-03-25T01:47:11.477Z,1.10
2023-03-25T01:49:41.059Z,0.80
2023-03-25T01:52:12.297Z,1.25
2023-03-25T01:54:40.790Z,0.90
2023-03-25T01:57:09.464Z,0.82
2023-03-25T01:59:37.615Z,0.65
2023-03-25T02:02:06.461Z,1.02
2023-03-25T02:04:39.448Z,0.60
2023-03-25T02:09:36.852Z,0.70
2023-03-25T02:12:04.693Z,0.60
2023-03-25T02:14:33.688Z,0.70
2023-03-25T02:17:04.932Z,0.77
2023-03-25T02:19:46.094Z,0.73
2023-03-25T02:22:38.172Z,0.70
2023-03-25T02:25:19.153Z,0.40
2023-03-25T02:27:56.784Z,0.85
2023-03-25T02:30:45.254Z,0.40
2023-03-25T02:33:32.797Z,0.60
2023-03-25T02:36:10.167Z,0.80
2023-03-25T02:38:40.724Z,1.13
2023-03-25T02:41:12.766Z,0.60
2023-03-25T02:43:42.871Z,0.70
2023-03-25T02:46:12.782Z,0.63
2023-03-25T02:48:45.830Z,0.77
2023-03-25T02:51:15.521Z,0.50
2023-03-25T02:53:46.947Z,0.60
2023-03-25T02:56:16.406Z,0.77
2023-03-25T02:58:46.004Z,0.75
2023-03-25T03:01:14.986Z,0.98
2023-03-25T03:03:42.926Z,0.70
2023-03-25T03:06:15.638Z,0.75
2023-03-25T03:08:50.882Z,0.90
2023-03-25T03:11:21.734Z,0.57
2023-03-25T03:14:02.606Z,0.85
2023-03-25T03:16:34.576Z,0.88
2023-03-25T03:19:05.931Z,0.63
2023-03-25T03:21:38.351Z,0.70
2023-03-25T03:24:11.306Z,0.68
2023-03-25T03:26:40.541Z,0.50
2023-03-25T03:29:10.764Z,0.50
2023-03-25T03:31:48.821Z,0.70
2023-03-25T03:34:34.704Z,0.60
2023-03-25T03:37:03.673Z,0.52
2023-03-25T03:39:34.170Z,0.82
2023-03-25T03:42:03.348Z,0.50
2023-03-25T03:44:32.751Z,0.70
2023-03-25T03:47:01.257Z,0.35
2023-03-25T03:49:30.451Z,0.47
2023-03-25T03:51:59.793Z,0.50
2023-03-25T03:54:29.757Z,0.55
2023-03-25T03:57:02.973Z,0.50
2023-03-25T03:59:36.233Z,0.55
2023-03-25T04:02:06.035Z,0.40
2023-03-25T04:04:35.146Z,0.50
2023-03-25T04:07:05.501Z,0.52
2023-03-25T04:09:38.550Z,0.43
2023-03-25T04:14:36.051Z,0.38
2023-03-25T04:17:05.845Z,0.38
2023-03-25T04:19:34.226Z,0.57
2023-03-25T04:22:02.593Z,0.40
2023-03-25T04:24:31.708Z,0.40
2023-03-25T04:27:03.367Z,0.50
2023-03-25T04:29:32.009Z,0.52
2023-03-25T04:32:01.700Z,0.47
2023-03-25T04:34:29.621Z,0.60
2023-03-25T04:36:58.560Z,0.50
2023-03-25T04:39:29.555Z,0.50
2023-03-25T04:41:57.757Z,0.30
2023-03-25T04:44:25.926Z,0.73
2023-03-25T04:46:53.828Z,0.55
2023-03-25T04:49:23.502Z,0.80
2023-03-25T04:51:51.964Z,0.60
2023-03-25T04:54:20.302Z,0.65
2023-03-25T04:56:49.746Z,0.45
2023-03-25T04:59:18.245Z,0.70
2023-03-25T05:01:46.332Z,0.52
2023-03-25T05:04:17.750Z,0.65
2023-03-25T05:06:48.633Z,0.93
2023-03-25T05:09:17.180Z,0.43
2023-03-25T05:11:44.921Z,0.88
2023-03-25T05:14:13.733Z,0.70
2023-03-25T05:16:41.592Z,1.30
2023-03-25T05:19:09.963Z,0.80
2023-03-25T05:21:38.780Z,0.65
2023-03-25T05:24:10.308Z,1.10
2023-03-25T05:26:39.680Z,1.20
2023-03-25T05:29:08.263Z,0.70
2023-03-25T05:31:36.278Z,0.60
2023-03-25T05:34:06.666Z,0.80
2023-03-25T05:36:34.776Z,1.10
2023-03-25T05:39:02.527Z,0.65
2023-03-25T05:41:33.739Z,0.70
2023-03-25T05:44:01.679Z,1.20
2023-03-25T05:46:30.429Z,1.50
2023-03-25T05:49:00.870Z,0.95
2023-03-25T05:51:29.277Z,0.75
2023-03-25T05:54:00.109Z,1.20
2023-03-25T05:56:27.975Z,1.08
2023-03-25T05:58:57.687Z,0.98
2023-03-25T06:01:33.311Z,0.93
2023-03-25T06:04:02.638Z,0.60
2023-03-25T06:06:32.445Z,1.00
2023-03-25T06:09:00.225Z,0.88
2023-03-25T06:11:28.023Z,1.20
2023-03-25T06:13:57.757Z,1.08
2023-03-25T06:16:27.874Z,0.95
2023-03-25T06:18:59.937Z,0.80
2023-03-25T06:21:28.716Z,0.47
2023-03-25T06:23:58.557Z,0.98
2023-03-25T06:26:27.177Z,0.73
2023-03-25T06:28:55.000Z,0.85
2023-03-25T06:31:26.874Z,1.02
2023-03-25T06:33:55.973Z,0.90
2023-03-25T06:36:26.078Z,0.98
2023-03-25T06:38:54.617Z,1.00
2023-03-25T06:41:25.835Z,1.10
2023-03-25T06:43:53.727Z,0.60
2023-03-25T06:46:21.481Z,0.50
2023-03-25T06:48:50.779Z,0.98
2023-03-25T06:51:18.579Z,0.88
2023-03-25T06:53:46.424Z,0.60
2023-03-25T06:56:14.179Z,0.80
2023-03-25T06:58:42.264Z,0.68
2023-03-25T07:01:10.348Z,0.90
2023-03-25T07:03:38.642Z,0.70
2023-03-25T07:06:08.611Z,0.65
2023-03-25T07:08:36.552Z,1.80
2023-03-25T07:11:05.628Z,1.13
2023-03-25T07:13:33.426Z,0.60
2023-03-25T07:16:01.829Z,0.55
2023-03-25T07:18:29.897Z,0.50
2023-03-25T07:20:57.877Z,0.70
2023-03-25T07:23:27.048Z,0.85
2023-03-25T07:25:55.166Z,0.68
2023-03-25T07:28:23.250Z,1.05
2023-03-25T07:30:51.012Z,0.80
2023-03-25T07:33:19.176Z,0.85
2023-03-25T07:35:46.947Z,0.80
2023-03-25T07:38:14.687Z,1.17
2023-03-25T07:40:43.793Z,1.15
2023-03-25T07:43:17.921Z,1.08
2023-03-25T07:45:45.725Z,0.90
2023-03-25T07:48:16.205Z,0.70
2023-03-25T07:50:45.689Z,0.70
2023-03-25T07:53:13.431Z,0.88
2023-03-25T07:55:41.212Z,0.98
2023-03-25T07:58:10.298Z,0.65
2023-03-25T08:00:38.103Z,0.70
2023-03-25T08:03:06.599Z,1.05
2023-03-25T08:05:34.656Z,0.98
2023-03-25T08:08:02.396Z,0.80
2023-03-25T08:10:30.520Z,0.80
2023-03-25T08:12:58.280Z,0.95
2023-03-25T08:15:27.583Z,0.95
2023-03-25T08:17:55.336Z,0.80
2023-03-25T08:20:23.322Z,2.10
2023-03-25T08:22:51.286Z,0.70
2023-03-25T08:25:19.388Z,1.25
2023-03-25T08:27:47.165Z,0.73
2023-03-25T08:30:15.817Z,0.75
2023-03-25T08:32:46.404Z,0.63
2023-03-25T08:35:18.949Z,0.60
2023-03-25T08:37:46.719Z,0.68
2023-03-25T08:40:16.936Z,0.65
2023-03-25T08:42:44.821Z,0.80
2023-03-25T08:45:13.447Z,0.70
2023-03-25T08:47:42.378Z,0.65
2023-03-25T08:50:11.763Z,0.70
2023-03-25T08:52:39.735Z,0.65
2023-03-25T08:55:11.143Z,0.82
2023-03-25T08:57:40.005Z,0.88
2023-03-25T09:00:12.665Z,0.90
2023-03-25T09:02:44.132Z,0.70
2023-03-25T09:05:13.690Z,0.65
2023-03-25T09:07:41.627Z,0.82
2023-03-25T09:10:10.103Z,0.73
2023-03-25T09:12:38.139Z,0.60
2023-03-25T09:15:06.593Z,0.70
2023-03-25T09:17:34.312Z,0.63
2023-03-25T09:20:02.245Z,0.68
2023-03-25T09:22:31.332Z,0.68
2023-03-25T09:24:59.187Z,0.80
2023-03-25T09:27:27.057Z,0.57
2023-03-25T09:29:54.809Z,0.40
2023-03-25T09:32:22.811Z,0.63
2023-03-25T09:34:50.528Z,0.88
2023-03-25T09:37:19.149Z,1.27
2023-03-25T09:39:48.251Z,0.93
2023-03-25T09:42:29.622Z,0.73
2023-03-25T09:45:11.508Z,0.77
2023-03-25T09:47:40.438Z,0.82
2023-03-25T09:50:13.010Z,0.77
2023-03-25T09:52:48.935Z,0.80
2023-03-25T09:55:21.153Z,0.70
2023-03-25T09:57:51.655Z,0.90
2023-03-25T10:00:21.254Z,0.93
2023-03-25T10:02:53.399Z,1.13
2023-03-25T10:05:26.396Z,1.10
2023-03-25T10:08:02.311Z,1.00
2023-03-25T10:10:33.501Z,0.70
2023-03-25T10:13:06.403Z,0.73
2023-03-25T10:15:38.083Z,0.90
2023-03-25T10:18:11.525Z,0.60
2023-03-25T10:20:45.205Z,0.90
2023-03-25T10:23:18.305Z,0.75
2023-03-25T10:28:18.900Z,0.82
2023-03-25T10:30:49.873Z,0.98
2023-03-25T10:33:19.934Z,1.08
2023-03-25T10:35:48.912Z,0.98
2023-03-25T10:40:50.256Z,0.75
2023-03-25T10:43:25.464Z,0.95
2023-03-25T10:45:55.456Z,0.82
2023-03-25T10:48:25.216Z,1.30
2023-03-25T10:50:53.642Z,0.85
2023-03-25T10:53:24.208Z,0.70
2023-03-25T10:55:55.798Z,0.50
2023-03-25T10:58:25.660Z,1.35
2023-03-25T11:00:53.556Z,0.73
2023-03-25T11:03:24.431Z,0.50
2023-03-25T11:05:53.000Z,0.70
2023-03-25T11:08:24.462Z,0.90
2023-03-25T11:10:57.327Z,0.87
2023-03-25T11:13:27.576Z,0.82
2023-03-25T11:15:56.594Z,0.98
2023-03-25T11:18:27.293Z,0.52
2023-03-25T11:20:56.793Z,0.80
2023-03-25T11:23:27.090Z,0.80
2023-03-25T11:25:55.872Z,0.80
2023-03-25T11:28:28.113Z,0.98
2023-03-25T11:31:14.052Z,0.90
2023-03-25T11:33:42.794Z,0.95
2023-03-25T11:36:14.955Z,0.82
2023-03-25T11:38:47.031Z,1.13
2023-03-25T11:41:15.303Z,0.93
2023-03-25T11:43:43.529Z,0.75
2023-03-25T11:46:14.196Z,0.82
2023-03-25T11:48:43.504Z,0.88
2023-03-25T11:51:13.792Z,0.50
2023-03-25T11:53:44.962Z,0.60
2023-03-25T11:56:16.503Z,0.55
2023-03-25T11:58:44.695Z,0.70
2023-03-25T12:01:22.565Z,0.60
2023-03-25T12:03:50.713Z,0.60
2023-03-25T12:06:19.428Z,0.40
2023-03-25T12:08:50.370Z,0.40
2023-03-25T12:11:21.619Z,0.38
2023-03-25T12:14:02.021Z,0.20
2023-03-25T12:16:35.038Z,0.55
2023-03-25T12:21:37.223Z,0.80
2023-03-25T12:24:11.494Z,0.57
2023-03-25T12:26:45.011Z,0.80
2023-03-25T12:29:26.932Z,0.60
2023-03-25T12:32:02.580Z,1.15
2023-03-25T12:34:37.688Z,0.50
2023-03-25T12:37:09.248Z,0.82
2023-03-25T12:39:43.968Z,1.00
2023-03-25T12:42:17.244Z,0.60
2023-03-25T12:47:17.336Z,0.70
2023-03-25T12:50:03.241Z,0.90
2023-03-25T12:52:37.205Z,0.63
2023-03-25T12:55:16.109Z,0.80
2023-03-25T12:57:50.179Z,1.08
2023-03-25T13:00:25.595Z,1.10
2023-03-25T13:03:18.760Z,2.17
2023-03-25T13:05:48.928Z,1.50
2023-03-25T13:08:18.684Z,0.70
2023-03-25T13:10:48.671Z,1.00
2023-03-25T13:13:18.074Z,1.30
2023-03-25T13:15:47.871Z,0.95
2023-03-25T13:18:19.546Z,0.75
2023-03-25T13:20:51.419Z,0.63
2023-03-25T13:23:22.515Z,0.90
2023-03-25T13:25:53.212Z,1.10
2023-03-25T13:28:38.254Z,0.82
2023-03-25T13:31:08.332Z,1.17
2023-03-25T13:33:38.402Z,0.80
2023-03-25T13:36:09.042Z,0.70
2023-03-25T13:38:39.570Z,0.77
2023-03-25T13:41:10.601Z,0.88
2023-03-25T13:43:43.977Z,0.75
2023-03-25T13:46:13.306Z,1.50
2023-03-25T13:48:46.831Z,1.33
2023-03-25T13:51:14.565Z,1.17
2023-03-25T13:53:46.681Z,0.98
2023-03-25T13:56:33.550Z,0.77
2023-03-25T13:59:18.556Z,1.08
2023-03-25T14:01:54.383Z,0.90
2023-03-25T14:04:37.437Z,1.58
2023-03-25T14:07:26.487Z,0.85
2023-03-25T14:10:14.969Z,1.17
2023-03-25T14:12:45.189Z,1.00
2023-03-25T14:15:16.182Z,0.90
2023-03-25T14:17:45.448Z,0.98
2023-03-25T14:20:18.137Z,1.20
2023-03-25T14:22:46.424Z,1.33
2023-03-25T14:25:20.162Z,1.40
2023-03-25T14:27:50.033Z,1.30
2023-03-25T14:30:22.092Z,1.23
2023-03-25T14:32:51.878Z,1.20
2023-03-25T14:35:35.083Z,1.52
2023-03-25T14:38:13.328Z,1.48
2023-03-25T14:41:01.964Z,1.05
2023-03-25T14:43:33.322Z,1.05
2023-03-25T14:46:06.633Z,1.30
2023-03-25T14:48:37.366Z,1.60
2023-03-25T14:51:23.391Z,1.60
2023-03-25T14:53:53.166Z,1.95
2023-03-25T14:56:23.509Z,1.30
2023-03-25T14:58:53.800Z,1.40
2023-03-25T15:01:25.843Z,1.60
2023-03-25T15:04:07.971Z,2.65
2023-03-25T15:06:36.895Z,1.00
2023-03-25T15:09:09.854Z,1.88
2023-03-25T15:11:38.733Z,1.33
2023-03-25T15:14:07.783Z,1.30
2023-03-25T15:16:40.142Z,2.50
2023-03-25T15:19:09.496Z,1.30
2023-03-25T15:21:55.900Z,0.90
2023-03-25T15:24:28.811Z,1.20
2023-03-25T15:27:00.770Z,2.05
2023-03-25T15:29:37.920Z,2.42
2023-03-25T15:32:14.414Z,2.20
2023-03-25T15:34:50.634Z,1.63
2023-03-25T15:37:46.862Z,1.23
2023-03-25T15:40:19.261Z,1.92
2023-03-25T15:42:59.216Z,1.85
2023-03-25T15:45:31.965Z,1.58
2023-03-25T15:48:10.761Z,1.15
2023-03-25T15:50:41.743Z,1.15
2023-03-25T15:53:35.863Z,1.23
2023-03-25T15:56:11.663Z,0.88
2023-03-25T15:58:43.413Z,0.90
2023-03-25T16:01:15.934Z,0.80
2023-03-25T16:03:45.854Z,0.82
2023-03-25T16:06:17.100Z,0.90
2023-03-25T16:08:47.239Z,0.70
2023-03-25T16:11:16.628Z,0.68
2023-03-25T16:13:45.010Z,2.05
2023-03-25T16:16:13.930Z,1.10
2023-03-25T16:18:43.540Z,1.10
2023-03-25T16:21:12.896Z,1.02
2023-03-25T16:23:40.728Z,1.60
2023-03-25T16:26:08.478Z,1.20
2023-03-25T16:28:40.897Z,1.83
2023-03-25T16:31:16.023Z,2.72
2023-03-25T16:33:45.064Z,1.10
2023-03-25T16:36:16.713Z,1.10
2023-03-25T16:38:44.999Z,1.85
2023-03-25T16:41:13.858Z,1.40
2023-03-25T16:43:42.210Z,1.05
2023-03-25T16:46:11.677Z,1.27
2023-03-25T16:48:40.962Z,1.30
2023-03-25T16:51:12.162Z,1.00
2023-03-25T16:53:41.876Z,1.95
2023-03-25T16:56:22.087Z,1.35
2023-03-25T16:58:55.976Z,2.33
2023-03-25T17:01:26.294Z,1.00
2023-03-25T17:04:06.199Z,1.35
2023-03-25T17:06:39.289Z,1.20
2023-03-25T17:11:36.082Z,0.82
2023-03-25T17:14:07.708Z,1.45
2023-03-25T17:16:37.108Z,2.25
2023-03-25T17:19:05.412Z,2.00
2023-03-25T17:21:34.063Z,1.75
2023-03-25T17:24:08.970Z,1.35
2023-03-25T17:26:53.996Z,0.80
2023-03-25T17:29:23.154Z,1.27
2023-03-25T17:31:56.175Z,1.17
2023-03-25T17:36:58.339Z,0.98
2023-03-25T17:39:28.100Z,1.48
2023-03-25T17:42:01.320Z,1.42
2023-03-25T17:44:32.776Z,1.33
2023-03-25T17:47:00.554Z,1.08
2023-03-25T17:49:28.462Z,1.00
2023-03-25T17:51:57.005Z,1.35
2023-03-25T17:54:25.089Z,1.35
2023-03-25T17:56:53.499Z,0.85
2023-03-25T17:59:22.420Z,1.58
2023-03-25T18:01:51.852Z,1.33
2023-03-25T18:04:20.732Z,1.50
2023-03-25T18:06:48.758Z,0.80
2023-03-25T18:09:17.100Z,1.27
2023-03-25T18:11:45.963Z,1.77
2023-03-25T18:14:14.000Z,1.38
2023-03-25T18:16:42.077Z,0.70
2023-03-25T18:19:11.820Z,1.00
2023-03-25T18:21:40.016Z,0.88
2023-03-25T18:24:07.999Z,3.38
2023-03-25T18:26:36.207Z,2.00
2023-03-25T18:29:05.266Z,1.13
2023-03-25T18:31:33.373Z,1.42
2023-03-25T18:34:01.343Z,1.02
2023-03-25T18:36:30.843Z,1.90
2023-03-25T18:38:58.581Z,1.23
2023-03-25T18:41:26.645Z,0.93
2023-03-25T18:43:54.673Z,1.10
2023-03-25T18:46:22.573Z,1.15
2023-03-25T18:48:50.343Z,1.13
2023-03-25T18:51:18.147Z,1.70
2023-03-25T18:53:48.849Z,1.10
2023-03-25T18:56:18.451Z,1.42
2023-03-25T18:58:46.234Z,1.85
2023-03-25T19:01:15.651Z,2.28
2023-03-25T19:03:43.550Z,1.77
2023-03-25T19:06:12.734Z,1.50
2023-03-25T19:08:40.511Z,2.00
2023-03-25T19:11:20.134Z,1.38
2023-03-25T19:13:49.484Z,1.05
2023-03-25T19:16:17.517Z,1.50
2023-03-25T19:18:47.335Z,1.30
2023-03-25T19:21:15.959Z,1.33
2023-03-25T19:23:44.085Z,1.00
2023-03-25T19:26:13.899Z,0.98
2023-03-25T19:28:42.374Z,1.10
2023-03-25T19:31:13.223Z,1.35
2023-03-25T19:33:41.068Z,1.02
2023-03-25T19:36:12.284Z,0.90
2023-03-25T19:38:40.149Z,1.05
2023-03-25T19:41:08.731Z,1.15
2023-03-25T19:43:38.415Z,1.40
2023-03-25T19:46:07.116Z,1.10
2023-03-25T19:48:35.147Z,1.15
2023-03-25T19:51:03.141Z,1.17
2023-03-25T19:53:31.034Z,1.25
2023-03-25T19:56:02.422Z,1.27
2023-03-25T19:58:30.228Z,1.30
2023-03-25T20:00:59.339Z,1.70
2023-03-25T20:03:31.247Z,3.17
2023-03-25T20:06:00.542Z,2.42
2023-03-25T20:08:29.199Z,1.05
2023-03-25T20:10:57.757Z,1.70
2023-03-25T20:13:25.762Z,1.23
2023-03-25T20:15:53.983Z,1.30
2023-03-25T20:18:23.320Z,1.35
2023-03-25T20:20:51.234Z,1.80
2023-03-25T20:23:18.999Z,1.33
2023-03-25T20:25:47.277Z,1.40
2023-03-25T20:28:15.031Z,1.50
2023-03-25T20:30:42.788Z,1.40
2023-03-25T20:33:11.004Z,2.10
2023-03-25T20:35:40.550Z,1.20
2023-03-25T20:38:08.673Z,1.40
2023-03-25T20:40:44.068Z,1.45
2023-03-25T20:43:14.736Z,1.85
2023-03-25T20:45:43.184Z,1.48
2023-03-25T20:48:11.517Z,1.73
2023-03-25T20:50:40.704Z,1.48
2023-03-25T20:53:09.148Z,1.88
2023-03-25T20:55:37.264Z,1.88
2023-03-25T20:58:06.030Z,1.55
2023-03-25T21:00:34.303Z,2.47
2023-03-25T21:03:03.389Z,1.63
2023-03-25T21:05:31.281Z,1.75
2023-03-25T21:08:00.570Z,1.50
2023-03-25T21:10:31.134Z,2.08
2023-03-25T21:12:58.870Z,2.80
2023-03-25T21:15:27.148Z,1.65
2023-03-25T21:17:55.091Z,1.63
2023-03-25T21:20:23.950Z,1.23
2023-03-25T21:22:52.089Z,0.98
2023-03-25T21:25:21.586Z,0.98
2023-03-25T21:27:49.595Z,0.98
2023-03-25T21:30:17.428Z,0.90
2023-03-25T21:32:45.477Z,0.55
2023-03-25T21:35:13.789Z,0.80
2023-03-25T21:37:41.868Z,0.63
2023-03-25T21:40:11.258Z,0.75
2023-03-25T21:42:41.830Z,0.80
2023-03-25T21:45:10.939Z,0.63
2023-03-25T21:47:38.730Z,0.85
2023-03-25T21:50:09.703Z,0.82
2023-03-25T21:52:38.273Z,0.73
2023-03-25T21:55:09.693Z,1.02
2023-03-25T21:57:38.444Z,1.30
2023-03-25T22:00:09.055Z,1.13
2023-03-25T22:02:37.016Z,1.63
2023-03-25T22:05:05.159Z,1.92
2023-03-25T22:07:32.936Z,1.27
2023-03-25T22:10:00.896Z,2.28
2023-03-25T22:12:30.167Z,2.33
2023-03-25T22:14:57.909Z,3.08
2023-03-25T22:17:27.266Z,1.55
2023-03-25T22:19:55.535Z,1.30
2023-03-25T22:22:23.281Z,2.67
2023-03-25T22:24:51.283Z,1.10
2023-03-25T22:27:19.043Z,0.45
2023-03-25T22:29:46.775Z,0.40
2023-03-25T22:32:14.780Z,0.50
2023-03-25T22:34:43.874Z,0.60
2023-03-25T22:37:11.616Z,0.50
2023-03-25T22:39:39.739Z,0.50
2023-03-25T22:42:07.478Z,0.60
2023-03-25T22:44:35.606Z,0.50
2023-03-25T22:47:03.749Z,0.40
2023-03-25T22:49:31.812Z,0.50
2023-03-25T22:52:01.300Z,0.60
2023-03-25T22:54:29.334Z,0.57
2023-03-25T22:56:57.944Z,0.30
2023-03-25T22:59:26.236Z,0.40
2023-03-25T23:01:54.568Z,0.38
2023-03-25T23:04:22.631Z,0.30
2023-03-25T23:07:04.689Z,0.28
2023-03-25T23:09:42.475Z,0.30
2023-03-25T23:12:11.098Z,0.38
2023-03-25T23:14:39.829Z,0.65
2023-03-25T23:17:08.181Z,0.28
2023-03-25T23:19:36.142Z,0.40
2023-03-25T23:22:04.901Z,0.35
2023-03-25T23:24:36.060Z,0.40
2023-03-25T23:27:05.936Z,0.20
2023-03-25T23:29:35.688Z,0.30
2023-03-25T23:32:05.080Z,0.40
2023-03-25T23:34:33.908Z,0.45
2023-03-25T23:37:02.126Z,0.30
2023-03-25T23:39:30.217Z,0.40
2023-03-25T23:41:58.070Z,0.30
2023-03-25T23:44:27.417Z,0.52
2023-03-25T23:46:56.134Z,0.40
2023-03-25T23:49:24.014Z,0.40
2023-03-25T23:51:52.203Z,0.40
2023-03-25T23:54:19.951Z,0.30
2023-03-25T23:56:47.963Z,0.20
2023-03-25T23:59:15.747Z,0.32
